sensor_id;sensor_type;location;lat;lon;timestamp;pressure;altitude;pressure_sealevel;temperature;humidity
74270;BME280;62754;48.252;11.654;2023-05-07T00:01:33;96108.34;;;11.67;90.96
74270;BME280;62754;48.252;11.654;2023-05-07T00:04:01;96104.84;;;11.68;91.36
74270;BME280;62754;48.252;11.654;2023-05-07T00:06:26;96109.44;;;11.85;91.04
74270;BME280;62754;48.252;11.654;2023-05-07T00:08:56;96105.75;;;11.88;90.38
74270;BME280;62754;48.252;11.654;2023-05-07T00:11:24;96109.28;;;11.87;90.61
74270;BME280;62754;48.252;11.654;2023-05-07T00:13:53;96105.22;;;11.64;90.83
74270;BME280;62754;48.252;11.654;2023-05-07T00:16:19;96097.22;;;11.67;91.29
74270;BME280;62754;48.252;11.654;2023-05-07T00:18:44;96106.13;;;11.74;90.70
74270;BME280;62754;48.252;11.654;2023-05-07T00:21:10;96105.84;;;11.77;91.01
74270;BME280;62754;48.252;11.654;2023-05-07T00:23:38;96096.84;;;11.71;91.18
74270;BME280;62754;48.252;11.654;2023-05-07T00:26:07;96102.06;;;11.81;91.06
74270;BME280;62754;48.252;11.654;2023-05-07T00:28:35;96095.25;;;11.80;91.03
74270;BME280;62754;48.252;11.654;2023-05-07T00:31:03;96104.66;;;11.81;90.25
74270;BME280;62754;48.252;11.654;2023-05-07T00:33:31;96094.31;;;11.81;90.41
74270;BME280;62754;48.252;11.654;2023-05-07T00:35:58;96091.75;;;11.81;90.53
74270;BME280;62754;48.252;11.654;2023-05-07T00:38:24;96090.09;;;11.80;90.81
74270;BME280;62754;48.252;11.654;2023-05-07T00:40:52;96088.25;;;11.71;91.68
74270;BME280;62754;48.252;11.654;2023-05-07T00:43:20;96085.59;;;11.72;91.05
74270;BME280;62754;48.252;11.654;2023-05-07T00:45:48;96085.38;;;11.64;90.79
74270;BME280;62754;48.252;11.654;2023-05-07T00:48:14;96086.94;;;11.46;91.36
74270;BME280;62754;48.252;11.654;2023-05-07T00:50:43;96083.41;;;11.47;91.59
74270;BME280;62754;48.252;11.654;2023-05-07T00:53:08;96086.69;;;11.49;91.89
74270;BME280;62754;48.252;11.654;2023-05-07T00:55:38;96089.56;;;11.56;90.78
74270;BME280;62754;48.252;11.654;2023-05-07T00:58:06;96087.63;;;11.48;91.23
74270;BME280;62754;48.252;11.654;2023-05-07T01:00:32;96091.78;;;11.39;91.92
74270;BME280;62754;48.252;11.654;2023-05-07T01:02:57;96093.34;;;11.52;91.17
74270;BME280;62754;48.252;11.654;2023-05-07T01:05:24;96091.47;;;11.54;91.39
74270;BME280;62754;48.252;11.654;2023-05-07T01:07:55;96093.66;;;11.58;91.70
74270;BME280;62754;48.252;11.654;2023-05-07T01:10:22;96098.56;;;11.61;91.33
74270;BME280;62754;48.252;11.654;2023-05-07T01:12:51;96097.19;;;11.57;91.74
74270;BME280;62754;48.252;11.654;2023-05-07T01:15:17;96098.41;;;11.63;91.51
74270;BME280;62754;48.252;11.654;2023-05-07T01:17:44;96101.09;;;11.72;91.23
74270;BME280;62754;48.252;11.654;2023-05-07T01:20:10;96100.13;;;11.73;90.98
74270;BME280;62754;48.252;11.654;2023-05-07T01:22:39;96097.16;;;11.78;90.63
74270;BME280;62754;48.252;11.654;2023-05-07T01:25:06;96089.81;;;11.73;90.74
74270;BME280;62754;48.252;11.654;2023-05-07T01:27:32;96089.34;;;11.68;90.68
74270;BME280;62754;48.252;11.654;2023-05-07T01:29:58;96091.09;;;11.68;90.84
74270;BME280;62754;48.252;11.654;2023-05-07T01:32:35;96085.94;;;11.68;90.83
74270;BME280;62754;48.252;11.654;2023-05-07T01:35:02;96085.69;;;11.71;90.34
74270;BME280;62754;48.252;11.654;2023-05-07T01:37:30;96084.44;;;11.65;90.56
74270;BME280;62754;48.252;11.654;2023-05-07T01:39:57;96078.91;;;11.70;91.12
74270;BME280;62754;48.252;11.654;2023-05-07T01:42:27;96083.38;;;11.68;91.31
74270;BME280;62754;48.252;11.654;2023-05-07T01:44:54;96083.44;;;11.57;91.83
74270;BME280;62754;48.252;11.654;2023-05-07T01:47:25;96076.06;;;11.42;92.19
74270;BME280;62754;48.252;11.654;2023-05-07T01:49:51;96084.91;;;11.50;91.65
74270;BME280;62754;48.252;11.654;2023-05-07T01:52:17;96078.34;;;11.15;92.40
74270;BME280;62754;48.252;11.654;2023-05-07T01:54:45;96075.81;;;11.25;92.51
74270;BME280;62754;48.252;11.654;2023-05-07T01:57:11;96084.38;;;11.25;92.37
74270;BME280;62754;48.252;11.654;2023-05-07T01:59:37;96075.63;;;11.37;92.33
74270;BME280;62754;48.252;11.654;2023-05-07T02:02:07;96072.09;;;11.38;92.03
74270;BME280;62754;48.252;11.654;2023-05-07T02:04:35;96072.91;;;11.39;91.91
74270;BME280;62754;48.252;11.654;2023-05-07T02:07:01;96082.97;;;11.42;91.83
74270;BME280;62754;48.252;11.654;2023-05-07T02:09:29;96083.81;;;11.42;92.12
74270;BME280;62754;48.252;11.654;2023-05-07T02:11:57;96085.69;;;11.40;91.89
74270;BME280;62754;48.252;11.654;2023-05-07T02:14:22;96084.75;;;11.41;92.32
74270;BME280;62754;48.252;11.654;2023-05-07T02:16:48;96089.06;;;11.41;92.10
74270;BME280;62754;48.252;11.654;2023-05-07T02:19:14;96086.22;;;11.44;91.98
74270;BME280;62754;48.252;11.654;2023-05-07T02:21:42;96083.47;;;11.36;91.76
74270;BME280;62754;48.252;11.654;2023-05-07T02:24:07;96078.00;;;11.29;92.50
74270;BME280;62754;48.252;11.654;2023-05-07T02:26:33;96085.13;;;11.37;91.65
74270;BME280;62754;48.252;11.654;2023-05-07T02:28:59;96078.09;;;11.39;92.52
74270;BME280;62754;48.252;11.654;2023-05-07T02:31:25;96080.69;;;11.48;91.89
74270;BME280;62754;48.252;11.654;2023-05-07T02:33:53;96088.81;;;11.44;92.30
74270;BME280;62754;48.252;11.654;2023-05-07T02:36:21;96088.69;;;11.45;92.23
74270;BME280;62754;48.252;11.654;2023-05-07T02:38:51;96089.25;;;11.49;92.52
74270;BME280;62754;48.252;11.654;2023-05-07T02:41:17;96088.63;;;11.57;92.52
74270;BME280;62754;48.252;11.654;2023-05-07T02:43:42;96094.91;;;11.43;92.91
74270;BME280;62754;48.252;11.654;2023-05-07T02:46:10;96089.53;;;11.46;93.38
74270;BME280;62754;48.252;11.654;2023-05-07T02:48:39;96084.94;;;11.29;94.01
74270;BME280;62754;48.252;11.654;2023-05-07T02:51:07;96087.06;;;11.24;94.40
74270;BME280;62754;48.252;11.654;2023-05-07T02:53:37;96088.13;;;11.42;93.79
74270;BME280;62754;48.252;11.654;2023-05-07T02:56:03;96086.88;;;11.36;93.39
74270;BME280;62754;48.252;11.654;2023-05-07T02:58:29;96088.06;;;11.32;92.97
74270;BME280;62754;48.252;11.654;2023-05-07T03:00:57;96092.75;;;11.38;92.85
74270;BME280;62754;48.252;11.654;2023-05-07T03:03:23;96088.13;;;11.42;92.73
74270;BME280;62754;48.252;11.654;2023-05-07T03:05:54;96084.03;;;11.39;92.96
74270;BME280;62754;48.252;11.654;2023-05-07T03:08:22;96077.34;;;11.27;93.18
74270;BME280;62754;48.252;11.654;2023-05-07T03:10:48;96079.28;;;11.14;93.69
74270;BME280;62754;48.252;11.654;2023-05-07T03:13:16;96073.03;;;11.17;93.10
74270;BME280;62754;48.252;11.654;2023-05-07T03:15:44;96079.34;;;11.03;93.42
74270;BME280;62754;48.252;11.654;2023-05-07T03:18:15;96074.19;;;11.03;93.81
74270;BME280;62754;48.252;11.654;2023-05-07T03:20:40;96083.56;;;11.04;93.69
74270;BME280;62754;48.252;11.654;2023-05-07T03:23:08;96086.28;;;10.71;94.46
74270;BME280;62754;48.252;11.654;2023-05-07T03:25:34;96085.31;;;10.83;94.01
74270;BME280;62754;48.252;11.654;2023-05-07T03:28:02;96090.16;;;10.97;93.91
74270;BME280;62754;48.252;11.654;2023-05-07T03:30:30;96081.38;;;10.99;93.39
74270;BME280;62754;48.252;11.654;2023-05-07T03:32:59;96088.84;;;11.03;93.06
74270;BME280;62754;48.252;11.654;2023-05-07T03:35:29;96085.00;;;10.97;93.45
74270;BME280;62754;48.252;11.654;2023-05-07T03:37:55;96085.44;;;11.02;93.00
74270;BME280;62754;48.252;11.654;2023-05-07T03:40:23;96082.41;;;10.97;92.96
74270;BME280;62754;48.252;11.654;2023-05-07T03:42:51;96078.34;;;10.94;92.74
74270;BME280;62754;48.252;11.654;2023-05-07T03:45:19;96073.56;;;10.90;92.48
74270;BME280;62754;48.252;11.654;2023-05-07T03:47:47;96075.25;;;10.80;93.88
74270;BME280;62754;48.252;11.654;2023-05-07T03:50:15;96080.03;;;10.84;93.72
74270;BME280;62754;48.252;11.654;2023-05-07T03:52:41;96085.88;;;10.86;93.95
74270;BME280;62754;48.252;11.654;2023-05-07T03:55:10;96080.47;;;10.89;93.84
74270;BME280;62754;48.252;11.654;2023-05-07T03:57:36;96075.75;;;10.94;93.98
74270;BME280;62754;48.252;11.654;2023-05-07T04:00:02;96081.22;;;11.01;93.53
74270;BME280;62754;48.252;11.654;2023-05-07T04:02:28;96081.47;;;10.98;93.32
74270;BME280;62754;48.252;11.654;2023-05-07T04:04:56;96094.81;;;11.03;93.47
74270;BME280;62754;48.252;11.654;2023-05-07T04:07:22;96085.00;;;10.97;93.83
74270;BME280;62754;48.252;11.654;2023-05-07T04:09:48;96093.25;;;10.91;94.40
74270;BME280;62754;48.252;11.654;2023-05-07T04:12:14;96094.75;;;10.93;94.39
74270;BME280;62754;48.252;11.654;2023-05-07T04:14:43;96091.69;;;10.99;93.84
74270;BME280;62754;48.252;11.654;2023-05-07T04:17:08;96102.56;;;11.03;94.62
74270;BME280;62754;48.252;11.654;2023-05-07T04:19:34;96104.50;;;11.11;94.21
74270;BME280;62754;48.252;11.654;2023-05-07T04:22:00;96105.50;;;10.98;94.52
74270;BME280;62754;48.252;11.654;2023-05-07T04:24:30;96109.22;;;11.06;94.56
74270;BME280;62754;48.252;11.654;2023-05-07T04:27:01;96111.06;;;11.15;94.47
74270;BME280;62754;48.252;11.654;2023-05-07T04:29:27;96101.31;;;11.18;93.83
74270;BME280;62754;48.252;11.654;2023-05-07T04:31:52;96121.56;;;11.23;94.04
74270;BME280;62754;48.252;11.654;2023-05-07T04:34:20;96112.28;;;11.20;93.50
74270;BME280;62754;48.252;11.654;2023-05-07T04:36:46;96112.28;;;11.20;93.72
74270;BME280;62754;48.252;11.654;2023-05-07T04:39:12;96108.03;;;11.30;93.77
74270;BME280;62754;48.252;11.654;2023-05-07T04:41:37;96117.97;;;11.35;93.13
74270;BME280;62754;48.252;11.654;2023-05-07T04:44:03;96110.25;;;11.35;93.34
74270;BME280;62754;48.252;11.654;2023-05-07T04:46:32;96116.38;;;11.43;92.94
74270;BME280;62754;48.252;11.654;2023-05-07T04:49:02;96116.81;;;11.48;92.42
74270;BME280;62754;48.252;11.654;2023-05-07T04:51:28;96119.97;;;11.52;92.50
74270;BME280;62754;48.252;11.654;2023-05-07T04:53:54;96113.91;;;11.63;92.12
74270;BME280;62754;48.252;11.654;2023-05-07T04:56:22;96118.81;;;11.66;91.61
74270;BME280;62754;48.252;11.654;2023-05-07T04:58:48;96113.66;;;11.66;91.85
74270;BME280;62754;48.252;11.654;2023-05-07T05:01:14;96117.38;;;11.73;91.41
74270;BME280;62754;48.252;11.654;2023-05-07T05:03:39;96120.44;;;11.87;91.43
74270;BME280;62754;48.252;11.654;2023-05-07T05:06:05;96133.38;;;11.97;90.96
74270;BME280;62754;48.252;11.654;2023-05-07T05:08:33;96126.19;;;12.01;91.48
74270;BME280;62754;48.252;11.654;2023-05-07T05:11:01;96128.91;;;11.99;91.95
74270;BME280;62754;48.252;11.654;2023-05-07T05:13:27;96130.06;;;12.16;91.29
74270;BME280;62754;48.252;11.654;2023-05-07T05:15:57;96133.31;;;12.18;91.98
74270;BME280;62754;48.252;11.654;2023-05-07T05:18:23;96123.97;;;12.36;91.12
74270;BME280;62754;48.252;11.654;2023-05-07T05:20:51;96124.66;;;12.48;90.90
74270;BME280;62754;48.252;11.654;2023-05-07T05:23:19;96125.38;;;12.59;91.20
74270;BME280;62754;48.252;11.654;2023-05-07T05:25:46;96125.81;;;12.55;91.56
74270;BME280;62754;48.252;11.654;2023-05-07T05:28:17;96122.94;;;12.67;90.75
74270;BME280;62754;48.252;11.654;2023-05-07T05:30:43;96120.66;;;12.74;91.13
74270;BME280;62754;48.252;11.654;2023-05-07T05:33:08;96121.72;;;12.90;90.69
74270;BME280;62754;48.252;11.654;2023-05-07T05:35:36;96124.84;;;12.94;90.54
74270;BME280;62754;48.252;11.654;2023-05-07T05:38:02;96123.75;;;13.06;89.13
74270;BME280;62754;48.252;11.654;2023-05-07T05:40:30;96116.31;;;13.13;89.26
74270;BME280;62754;48.252;11.654;2023-05-07T05:42:56;96122.28;;;13.23;88.38
74270;BME280;62754;48.252;11.654;2023-05-07T05:45:21;96125.69;;;13.23;87.73
74270;BME280;62754;48.252;11.654;2023-05-07T05:47:47;96124.72;;;13.44;86.82
74270;BME280;62754;48.252;11.654;2023-05-07T05:50:17;96130.56;;;13.46;86.41
74270;BME280;62754;48.252;11.654;2023-05-07T05:52:45;96126.28;;;13.64;83.98
74270;BME280;62754;48.252;11.654;2023-05-07T05:55:16;96125.44;;;13.73;84.03
74270;BME280;62754;48.252;11.654;2023-05-07T05:57:41;96127.91;;;13.74;84.52
74270;BME280;62754;48.252;11.654;2023-05-07T06:00:11;96119.69;;;13.79;83.60
74270;BME280;62754;48.252;11.654;2023-05-07T06:02:36;96125.63;;;13.99;84.15
74270;BME280;62754;48.252;11.654;2023-05-07T06:05:07;96121.75;;;14.12;83.23
74270;BME280;62754;48.252;11.654;2023-05-07T06:07:35;96130.97;;;14.24;83.51
74270;BME280;62754;48.252;11.654;2023-05-07T06:10:03;96131.34;;;14.29;82.55
74270;BME280;62754;48.252;11.654;2023-05-07T06:12:31;96128.44;;;14.42;82.81
74270;BME280;62754;48.252;11.654;2023-05-07T06:14:59;96122.91;;;14.55;81.75
74270;BME280;62754;48.252;11.654;2023-05-07T06:17:27;96129.66;;;14.65;82.02
74270;BME280;62754;48.252;11.654;2023-05-07T06:19:53;96131.59;;;14.81;82.04
74270;BME280;62754;48.252;11.654;2023-05-07T06:22:21;96129.22;;;14.88;81.81
74270;BME280;62754;48.252;11.654;2023-05-07T06:24:46;96136.13;;;14.97;81.10
74270;BME280;62754;48.252;11.654;2023-05-07T06:27:12;96128.25;;;15.06;81.00
74270;BME280;62754;48.252;11.654;2023-05-07T06:29:38;96133.91;;;15.19;81.20
74270;BME280;62754;48.252;11.654;2023-05-07T06:34:33;96134.03;;;15.36;78.56
74270;BME280;62754;48.252;11.654;2023-05-07T06:37:01;96131.50;;;15.44;78.52
74270;BME280;62754;48.252;11.654;2023-05-07T06:39:29;96132.41;;;15.52;77.95
74270;BME280;62754;48.252;11.654;2023-05-07T06:42:00;96133.97;;;15.71;78.05
74270;BME280;62754;48.252;11.654;2023-05-07T06:44:28;96136.50;;;15.89;77.39
74270;BME280;62754;48.252;11.654;2023-05-07T06:46:56;96143.16;;;15.91;77.33
74270;BME280;62754;48.252;11.654;2023-05-07T06:49:22;96141.66;;;16.14;76.68
74270;BME280;62754;48.252;11.654;2023-05-07T06:51:48;96144.81;;;16.26;76.36
74270;BME280;62754;48.252;11.654;2023-05-07T06:54:16;96151.84;;;16.42;75.68
74270;BME280;62754;48.252;11.654;2023-05-07T06:56:44;96151.56;;;16.53;74.09
74270;BME280;62754;48.252;11.654;2023-05-07T06:59:09;96155.25;;;16.68;73.37
74270;BME280;62754;48.252;11.654;2023-05-07T07:01:38;96144.34;;;16.73;74.56
74270;BME280;62754;48.252;11.654;2023-05-07T07:04:06;96156.53;;;16.72;74.05
74270;BME280;62754;48.252;11.654;2023-05-07T07:06:32;96152.03;;;16.90;72.17
74270;BME280;62754;48.252;11.654;2023-05-07T07:08:58;96146.97;;;16.89;71.20
74270;BME280;62754;48.252;11.654;2023-05-07T07:11:24;96152.88;;;17.15;69.45
74270;BME280;62754;48.252;11.654;2023-05-07T07:13:53;96150.59;;;17.28;69.93
74270;BME280;62754;48.252;11.654;2023-05-07T07:16:21;96160.41;;;17.58;69.98
74270;BME280;62754;48.252;11.654;2023-05-07T07:18:47;96154.16;;;17.92;70.79
74270;BME280;62754;48.252;11.654;2023-05-07T07:21:15;96158.25;;;17.94;69.89
74270;BME280;62754;48.252;11.654;2023-05-07T07:23:41;96156.75;;;17.92;68.62
74270;BME280;62754;48.252;11.654;2023-05-07T07:26:07;96160.59;;;18.20;67.33
74270;BME280;62754;48.252;11.654;2023-05-07T07:28:33;96160.63;;;18.12;67.30
74270;BME280;62754;48.252;11.654;2023-05-07T07:30:58;96155.63;;;18.49;67.33
74270;BME280;62754;48.252;11.654;2023-05-07T07:33:24;96157.50;;;18.72;67.17
74270;BME280;62754;48.252;11.654;2023-05-07T07:35:55;96162.75;;;18.64;67.52
74270;BME280;62754;48.252;11.654;2023-05-07T07:38:24;96153.38;;;18.77;65.34
74270;BME280;62754;48.252;11.654;2023-05-07T07:40:49;96157.97;;;18.75;66.04
74270;BME280;62754;48.252;11.654;2023-05-07T07:43:15;96153.56;;;18.76;64.37
74270;BME280;62754;48.252;11.654;2023-05-07T07:45:41;96154.91;;;18.94;65.72
74270;BME280;62754;48.252;11.654;2023-05-07T07:48:11;96155.44;;;18.90;64.69
74270;BME280;62754;48.252;11.654;2023-05-07T07:50:38;96154.56;;;19.20;64.15
74270;BME280;62754;48.252;11.654;2023-05-07T07:53:03;96153.06;;;19.26;64.58
74270;BME280;62754;48.252;11.654;2023-05-07T07:55:31;96157.72;;;19.61;63.93
74270;BME280;62754;48.252;11.654;2023-05-07T07:57:57;96159.16;;;19.41;63.91
74270;BME280;62754;48.252;11.654;2023-05-07T08:00:25;96149.25;;;19.74;63.75
74270;BME280;62754;48.252;11.654;2023-05-07T08:02:51;96160.84;;;19.94;62.08
74270;BME280;62754;48.252;11.654;2023-05-07T08:05:16;96160.13;;;20.15;61.22
74270;BME280;62754;48.252;11.654;2023-05-07T08:07:42;96159.69;;;20.40;62.60
74270;BME280;62754;48.252;11.654;2023-05-07T08:10:11;96161.34;;;20.41;62.98
74270;BME280;62754;48.252;11.654;2023-05-07T08:12:37;96158.88;;;20.40;62.54
74270;BME280;62754;48.252;11.654;2023-05-07T08:15:06;96162.59;;;20.46;60.24
74270;BME280;62754;48.252;11.654;2023-05-07T08:17:32;96150.81;;;20.71;59.16
74270;BME280;62754;48.252;11.654;2023-05-07T08:20:00;96164.72;;;20.71;57.50
74270;BME280;62754;48.252;11.654;2023-05-07T08:22:28;96167.84;;;20.96;57.16
74270;BME280;62754;48.252;11.654;2023-05-07T08:24:53;96172.53;;;21.01;55.71
74270;BME280;62754;48.252;11.654;2023-05-07T08:27:22;96170.50;;;21.17;56.62
74270;BME280;62754;48.252;11.654;2023-05-07T08:29:47;96166.63;;;21.13;55.88
74270;BME280;62754;48.252;11.654;2023-05-07T08:32:18;96163.66;;;21.02;56.72
74270;BME280;62754;48.252;11.654;2023-05-07T08:34:49;96168.84;;;21.31;55.70
74270;BME280;62754;48.252;11.654;2023-05-07T08:37:19;96166.06;;;21.60;55.17
74270;BME280;62754;48.252;11.654;2023-05-07T08:39:47;96161.59;;;21.82;53.60
74270;BME280;62754;48.252;11.654;2023-05-07T08:42:16;96174.34;;;21.85;54.86
74270;BME280;62754;48.252;11.654;2023-05-07T08:44:45;96164.94;;;22.25;52.89
74270;BME280;62754;48.252;11.654;2023-05-07T08:47:15;96171.22;;;22.30;53.31
74270;BME280;62754;48.252;11.654;2023-05-07T08:49:41;96168.09;;;22.48;53.66
74270;BME280;62754;48.252;11.654;2023-05-07T08:52:13;96171.88;;;22.73;49.95
74270;BME280;62754;48.252;11.654;2023-05-07T08:54:39;96165.47;;;22.14;51.79
74270;BME280;62754;48.252;11.654;2023-05-07T08:57:08;96169.44;;;22.38;53.49
74270;BME280;62754;48.252;11.654;2023-05-07T08:59:39;96165.88;;;22.93;52.03
74270;BME280;62754;48.252;11.654;2023-05-07T09:02:07;96171.91;;;23.60;47.79
74270;BME280;62754;48.252;11.654;2023-05-07T09:04:37;96169.47;;;23.46;49.64
74270;BME280;62754;48.252;11.654;2023-05-07T09:07:02;96172.91;;;23.46;49.49
74270;BME280;62754;48.252;11.654;2023-05-07T09:09:28;96173.72;;;23.60;47.86
74270;BME280;62754;48.252;11.654;2023-05-07T09:11:57;96178.19;;;23.86;49.14
74270;BME280;62754;48.252;11.654;2023-05-07T09:14:23;96174.31;;;23.49;49.56
74270;BME280;62754;48.252;11.654;2023-05-07T09:16:52;96166.22;;;23.83;49.02
74270;BME280;62754;48.252;11.654;2023-05-07T09:19:25;96169.88;;;23.95;48.09
74270;BME280;62754;48.252;11.654;2023-05-07T09:22:03;96171.50;;;24.09;46.00
74270;BME280;62754;48.252;11.654;2023-05-07T09:24:29;96166.44;;;23.82;46.40
74270;BME280;62754;48.252;11.654;2023-05-07T09:26:57;96171.88;;;24.06;47.11
74270;BME280;62754;48.252;11.654;2023-05-07T09:29:28;96167.25;;;23.89;47.47
74270;BME280;62754;48.252;11.654;2023-05-07T09:31:55;96160.75;;;23.91;46.11
74270;BME280;62754;48.252;11.654;2023-05-07T09:34:24;96158.09;;;24.31;44.18
74270;BME280;62754;48.252;11.654;2023-05-07T09:36:55;96153.84;;;24.30;45.98
74270;BME280;62754;48.252;11.654;2023-05-07T09:39:23;96160.84;;;24.62;43.53
74270;BME280;62754;48.252;11.654;2023-05-07T09:41:49;96159.06;;;24.49;44.41
74270;BME280;62754;48.252;11.654;2023-05-07T09:44:15;96160.38;;;23.75;45.62
74270;BME280;62754;48.252;11.654;2023-05-07T09:46:43;96163.38;;;24.31;46.50
74270;BME280;62754;48.252;11.654;2023-05-07T09:49:15;96164.81;;;24.91;44.49
74270;BME280;62754;48.252;11.654;2023-05-07T09:51:50;96157.94;;;24.90;45.34
74270;BME280;62754;48.252;11.654;2023-05-07T09:54:17;96162.22;;;24.84;44.74
74270;BME280;62754;48.252;11.654;2023-05-07T09:56:44;96161.72;;;25.00;44.04
74270;BME280;62754;48.252;11.654;2023-05-07T09:59:15;96156.22;;;25.08;42.57
74270;BME280;62754;48.252;11.654;2023-05-07T10:01:43;96154.97;;;25.11;41.11
74270;BME280;62754;48.252;11.654;2023-05-07T10:04:10;96155.94;;;24.85;41.88
74270;BME280;62754;48.252;11.654;2023-05-07T10:06:41;96149.38;;;25.32;42.88
74270;BME280;62754;48.252;11.654;2023-05-07T10:09:10;96151.88;;;25.21;39.94
74270;BME280;62754;48.252;11.654;2023-05-07T10:11:39;96150.34;;;25.38;37.79
74270;BME280;62754;48.252;11.654;2023-05-07T10:14:05;96154.28;;;25.22;40.23
74270;BME280;62754;48.252;11.654;2023-05-07T10:16:31;96150.25;;;25.20;41.97
74270;BME280;62754;48.252;11.654;2023-05-07T10:19:00;96157.22;;;25.07;41.64
74270;BME280;62754;48.252;11.654;2023-05-07T10:21:29;96153.91;;;25.19;40.88
74270;BME280;62754;48.252;11.654;2023-05-07T10:23:59;96160.25;;;24.60;40.71
74270;BME280;62754;48.252;11.654;2023-05-07T10:26:29;96155.66;;;25.00;41.45
74270;BME280;62754;48.252;11.654;2023-05-07T10:29:39;96157.59;;;25.18;39.87
74270;BME280;62754;48.252;11.654;2023-05-07T10:32:40;96160.09;;;25.37;39.73
74270;BME280;62754;48.252;11.654;2023-05-07T10:35:19;96155.88;;;24.98;41.01
74270;BME280;62754;48.252;11.654;2023-05-07T10:37:46;96157.03;;;25.40;40.21
74270;BME280;62754;48.252;11.654;2023-05-07T10:40:14;96155.88;;;24.92;40.82
74270;BME280;62754;48.252;11.654;2023-05-07T10:42:59;96152.66;;;25.28;40.07
74270;BME280;62754;48.252;11.654;2023-05-07T10:45:29;96151.88;;;25.83;39.09
74270;BME280;62754;48.252;11.654;2023-05-07T10:50:38;96155.84;;;25.68;35.75
74270;BME280;62754;48.252;11.654;2023-05-07T10:58:39;96155.19;;;26.58;34.88
74270;BME280;62754;48.252;11.654;2023-05-07T11:01:05;96155.72;;;26.67;34.99
74270;BME280;62754;48.252;11.654;2023-05-07T11:03:33;96155.00;;;25.98;36.41
74270;BME280;62754;48.252;11.654;2023-05-07T11:06:25;96159.56;;;26.10;35.25
74270;BME280;62754;48.252;11.654;2023-05-07T11:08:59;96159.22;;;25.99;35.42
74270;BME280;62754;48.252;11.654;2023-05-07T11:11:47;96151.91;;;25.77;34.87
74270;BME280;62754;48.252;11.654;2023-05-07T11:17:08;96151.84;;;26.08;34.38
74270;BME280;62754;48.252;11.654;2023-05-07T11:20:05;96154.19;;;26.16;33.66
74270;BME280;62754;48.252;11.654;2023-05-07T11:25:02;96144.22;;;26.18;33.32
74270;BME280;62754;48.252;11.654;2023-05-07T11:27:29;96151.22;;;26.31;33.63
74270;BME280;62754;48.252;11.654;2023-05-07T11:29:57;96145.09;;;26.12;34.82
74270;BME280;62754;48.252;11.654;2023-05-07T11:32:32;96144.53;;;26.65;32.50
74270;BME280;62754;48.252;11.654;2023-05-07T11:34:59;96141.31;;;26.99;33.71
74270;BME280;62754;48.252;11.654;2023-05-07T11:37:26;96134.44;;;27.10;32.10
74270;BME280;62754;48.252;11.654;2023-05-07T11:40:05;96134.44;;;27.10;32.60
74270;BME280;62754;48.252;11.654;2023-05-07T11:42:36;96131.16;;;27.26;31.03
74270;BME280;62754;48.252;11.654;2023-05-07T11:45:03;96138.66;;;26.99;33.23
74270;BME280;62754;48.252;11.654;2023-05-07T11:47:30;96132.56;;;26.80;32.68
74270;BME280;62754;48.252;11.654;2023-05-07T11:50:02;96135.91;;;26.15;30.96
74270;BME280;62754;48.252;11.654;2023-05-07T11:52:28;96138.25;;;26.47;32.97
74270;BME280;62754;48.252;11.654;2023-05-07T11:54:57;96127.00;;;26.88;31.93
74270;BME280;62754;48.252;11.654;2023-05-07T11:57:24;96132.50;;;27.17;33.58
74270;BME280;62754;48.252;11.654;2023-05-07T11:59:54;96130.38;;;27.90;30.67
74270;BME280;62754;48.252;11.654;2023-05-07T12:02:19;96122.53;;;27.60;30.83
74270;BME280;62754;48.252;11.654;2023-05-07T12:04:45;96131.72;;;27.58;32.23
74270;BME280;62754;48.252;11.654;2023-05-07T12:07:12;96128.28;;;27.27;30.76
74270;BME280;62754;48.252;11.654;2023-05-07T12:09:41;96125.69;;;26.61;30.56
74270;BME280;62754;48.252;11.654;2023-05-07T12:12:07;96131.34;;;25.85;30.86
74270;BME280;62754;48.252;11.654;2023-05-07T12:14:43;96123.06;;;26.00;31.26
74270;BME280;62754;48.252;11.654;2023-05-07T12:17:10;96122.47;;;26.41;32.69
74270;BME280;62754;48.252;11.654;2023-05-07T12:19:36;96116.06;;;26.67;32.83
74270;BME280;62754;48.252;11.654;2023-05-07T12:22:03;96117.56;;;26.44;33.72
74270;BME280;62754;48.252;11.654;2023-05-07T12:24:50;96114.78;;;26.21;33.81
74270;BME280;62754;48.252;11.654;2023-05-07T12:27:21;96112.41;;;25.88;34.49
74270;BME280;62754;48.252;11.654;2023-05-07T12:29:47;96120.88;;;26.15;34.82
74270;BME280;62754;48.252;11.654;2023-05-07T12:32:15;96113.97;;;25.96;34.09
74270;BME280;62754;48.252;11.654;2023-05-07T12:34:41;96114.41;;;25.93;35.65
74270;BME280;62754;48.252;11.654;2023-05-07T12:37:09;96111.00;;;25.36;35.83
74270;BME280;62754;48.252;11.654;2023-05-07T12:39:37;96109.63;;;25.83;36.42
74270;BME280;62754;48.252;11.654;2023-05-07T12:42:03;96104.59;;;26.00;36.81
74270;BME280;62754;48.252;11.654;2023-05-07T12:44:29;96102.56;;;26.38;37.23
74270;BME280;62754;48.252;11.654;2023-05-07T12:46:55;96094.63;;;26.02;36.95
74270;BME280;62754;48.252;11.654;2023-05-07T12:49:21;96100.19;;;25.94;37.15
74270;BME280;62754;48.252;11.654;2023-05-07T12:51:47;96087.41;;;25.41;38.27
74270;BME280;62754;48.252;11.654;2023-05-07T12:54:13;96091.28;;;25.88;37.42
74270;BME280;62754;48.252;11.654;2023-05-07T12:56:42;96081.25;;;25.97;38.35
74270;BME280;62754;48.252;11.654;2023-05-07T12:59:07;96084.25;;;26.00;36.57
74270;BME280;62754;48.252;11.654;2023-05-07T13:01:33;96083.72;;;25.74;38.05
74270;BME280;62754;48.252;11.654;2023-05-07T13:04:07;96084.91;;;25.78;38.46
74270;BME280;62754;48.252;11.654;2023-05-07T13:06:38;96086.03;;;26.06;37.76
74270;BME280;62754;48.252;11.654;2023-05-07T13:09:06;96081.53;;;25.71;37.48
74270;BME280;62754;48.252;11.654;2023-05-07T13:11:34;96078.16;;;25.57;37.95